Terminal Aerodrome Forecast
Issued by NWS

Home | Current Version | Previous Version | Text Only | Print | Product List | Glossary On
Versions: 1 2 3 4 5 6 7 8 9 10 11 12 13
000
FTUS45 KABQ 172300
TAFLVS
TAF
KLVS 172340Z 1800/1824 23016G26KT P6SM VCSH OVC100
     FM180300 25010KT P6SM OVC080
     FM181100 32007KT P6SM BKN080
     FM181500 01006KT P6SM BKN080
     FM182000 17008KT P6SM BKN090=

USA.gov is the U.S. government's official web portal to all federal, state and local government web resources and services.